sensor_id;sensor_type;location;lat;lon;timestamp;temperature;humidity
8261;DHT22;64115;50.170;8.242;2023-06-22T00:01:16;19.30;99.90
8261;DHT22;64115;50.170;8.242;2023-06-22T00:03:45;19.30;99.90
8261;DHT22;64115;50.170;8.242;2023-06-22T00:06:12;19.30;99.90
8261;DHT22;64115;50.170;8.242;2023-06-22T00:08:39;19.30;99.90
8261;DHT22;64115;50.170;8.242;2023-06-22T00:11:07;19.30;99.90
8261;DHT22;64115;50.170;8.242;2023-06-22T00:13:34;19.30;99.90
8261;DHT22;64115;50.170;8.242;2023-06-22T00:16:02;19.20;99.90
8261;DHT22;64115;50.170;8.242;2023-06-22T00:18:29;19.20;99.90
8261;DHT22;64115;50.170;8.242;2023-06-22T00:20:56;19.20;99.90
8261;DHT22;64115;50.170;8.242;2023-06-22T00:23:26;19.10;99.90
8261;DHT22;64115;50.170;8.242;2023-06-22T00:25:52;19.00;99.90
8261;DHT22;64115;50.170;8.242;2023-06-22T00:28:21;19.00;99.90
8261;DHT22;64115;50.170;8.242;2023-06-22T00:30:48;19.00;99.90
8261;DHT22;64115;50.170;8.242;2023-06-22T00:33:15;19.00;99.90
8261;DHT22;64115;50.170;8.242;2023-06-22T00:35:42;19.00;99.90
8261;DHT22;64115;50.170;8.242;2023-06-22T00:38:09;19.00;99.90
8261;DHT22;64115;50.170;8.242;2023-06-22T00:40:36;19.00;99.90
8261;DHT22;64115;50.170;8.242;2023-06-22T00:43:03;19.00;99.90
8261;DHT22;64115;50.170;8.242;2023-06-22T00:45:31;18.90;99.90
8261;DHT22;64115;50.170;8.242;2023-06-22T00:47:59;18.90;99.90
8261;DHT22;64115;50.170;8.242;2023-06-22T00:50:27;18.90;99.90
8261;DHT22;64115;50.170;8.242;2023-06-22T00:52:56;18.80;99.90
8261;DHT22;64115;50.170;8.242;2023-06-22T00:55:24;18.80;99.90
8261;DHT22;64115;50.170;8.242;2023-06-22T00:57:51;18.80;99.90
8261;DHT22;64115;50.170;8.242;2023-06-22T01:00:24;18.70;99.90
8261;DHT22;64115;50.170;8.242;2023-06-22T01:02:53;18.70;99.90
8261;DHT22;64115;50.170;8.242;2023-06-22T01:05:22;18.70;99.90
8261;DHT22;64115;50.170;8.242;2023-06-22T01:08:02;18.60;99.90
8261;DHT22;64115;50.170;8.242;2023-06-22T01:10:38;18.70;99.90
8261;DHT22;64115;50.170;8.242;2023-06-22T01:13:10;18.60;99.90
8261;DHT22;64115;50.170;8.242;2023-06-22T01:15:44;18.60;99.90
8261;DHT22;64115;50.170;8.242;2023-06-22T01:18:17;18.60;99.90
8261;DHT22;64115;50.170;8.242;2023-06-22T01:20:45;18.50;99.90
8261;DHT22;64115;50.170;8.242;2023-06-22T01:23:26;18.40;99.90
8261;DHT22;64115;50.170;8.242;2023-06-22T01:25:59;18.30;99.90
8261;DHT22;64115;50.170;8.242;2023-06-22T01:28:43;18.10;99.90
8261;DHT22;64115;50.170;8.242;2023-06-22T01:31:11;18.00;99.90
8261;DHT22;64115;50.170;8.242;2023-06-22T01:33:41;18.00;99.90
8261;DHT22;64115;50.170;8.242;2023-06-22T01:36:09;18.10;99.90
8261;DHT22;64115;50.170;8.242;2023-06-22T01:38:37;18.10;99.90
8261;DHT22;64115;50.170;8.242;2023-06-22T01:41:07;18.10;99.90
8261;DHT22;64115;50.170;8.242;2023-06-22T01:43:36;18.20;99.90
8261;DHT22;64115;50.170;8.242;2023-06-22T01:46:04;18.20;99.90
8261;DHT22;64115;50.170;8.242;2023-06-22T01:48:31;18.30;99.90
8261;DHT22;64115;50.170;8.242;2023-06-22T01:51:00;18.30;99.90
8261;DHT22;64115;50.170;8.242;2023-06-22T01:53:27;18.30;99.90
8261;DHT22;64115;50.170;8.242;2023-06-22T01:55:53;18.30;99.90
8261;DHT22;64115;50.170;8.242;2023-06-22T01:58:21;18.40;99.90
8261;DHT22;64115;50.170;8.242;2023-06-22T02:00:55;18.40;99.90
8261;DHT22;64115;50.170;8.242;2023-06-22T02:03:29;18.30;99.90
8261;DHT22;64115;50.170;8.242;2023-06-22T02:06:03;18.10;99.90
8261;DHT22;64115;50.170;8.242;2023-06-22T02:08:32;18.10;99.90
8261;DHT22;64115;50.170;8.242;2023-06-22T02:11:00;18.10;99.90
8261;DHT22;64115;50.170;8.242;2023-06-22T02:13:29;18.10;99.90
8261;DHT22;64115;50.170;8.242;2023-06-22T02:15:58;18.10;99.90
8261;DHT22;64115;50.170;8.242;2023-06-22T02:18:25;18.20;99.90
8261;DHT22;64115;50.170;8.242;2023-06-22T02:20:51;18.20;99.90
8261;DHT22;64115;50.170;8.242;2023-06-22T02:23:19;18.20;99.90
8261;DHT22;64115;50.170;8.242;2023-06-22T02:25:45;18.20;99.90
8261;DHT22;64115;50.170;8.242;2023-06-22T02:28:12;18.20;99.90
8261;DHT22;64115;50.170;8.242;2023-06-22T02:30:41;18.40;99.90
8261;DHT22;64115;50.170;8.242;2023-06-22T02:33:09;18.40;99.90
8261;DHT22;64115;50.170;8.242;2023-06-22T02:35:35;18.40;99.90
8261;DHT22;64115;50.170;8.242;2023-06-22T02:38:04;18.40;99.90
8261;DHT22;64115;50.170;8.242;2023-06-22T02:40:31;18.40;99.90
8261;DHT22;64115;50.170;8.242;2023-06-22T02:42:58;18.40;99.90
8261;DHT22;64115;50.170;8.242;2023-06-22T02:45:27;18.40;99.90
8261;DHT22;64115;50.170;8.242;2023-06-22T02:47:55;18.20;99.90
8261;DHT22;64115;50.170;8.242;2023-06-22T02:50:25;18.10;99.90
8261;DHT22;64115;50.170;8.242;2023-06-22T02:52:52;18.00;99.90
8261;DHT22;64115;50.170;8.242;2023-06-22T02:55:19;18.00;99.90
8261;DHT22;64115;50.170;8.242;2023-06-22T02:57:46;18.00;99.90
8261;DHT22;64115;50.170;8.242;2023-06-22T03:00:14;18.00;99.90
8261;DHT22;64115;50.170;8.242;2023-06-22T03:02:43;18.00;99.90
8261;DHT22;64115;50.170;8.242;2023-06-22T03:05:10;18.00;99.90
8261;DHT22;64115;50.170;8.242;2023-06-22T03:07:40;17.90;99.90
8261;DHT22;64115;50.170;8.242;2023-06-22T03:10:08;17.90;99.90
8261;DHT22;64115;50.170;8.242;2023-06-22T03:12:35;17.90;99.90
8261;DHT22;64115;50.170;8.242;2023-06-22T03:15:02;17.90;99.90
8261;DHT22;64115;50.170;8.242;2023-06-22T03:17:29;17.90;99.90
8261;DHT22;64115;50.170;8.242;2023-06-22T03:19:55;17.90;99.90
8261;DHT22;64115;50.170;8.242;2023-06-22T03:22:22;18.00;99.90
8261;DHT22;64115;50.170;8.242;2023-06-22T03:24:50;18.00;99.90
8261;DHT22;64115;50.170;8.242;2023-06-22T03:27:17;18.00;99.90
8261;DHT22;64115;50.170;8.242;2023-06-22T03:29:44;18.00;99.90
8261;DHT22;64115;50.170;8.242;2023-06-22T03:32:11;18.00;99.90
8261;DHT22;64115;50.170;8.242;2023-06-22T03:34:37;18.00;99.90
8261;DHT22;64115;50.170;8.242;2023-06-22T03:37:04;17.90;99.90
8261;DHT22;64115;50.170;8.242;2023-06-22T03:39:32;17.90;99.90
8261;DHT22;64115;50.170;8.242;2023-06-22T03:42:00;17.90;99.90
8261;DHT22;64115;50.170;8.242;2023-06-22T03:44:26;17.90;99.90
8261;DHT22;64115;50.170;8.242;2023-06-22T03:46:53;18.00;99.90
8261;DHT22;64115;50.170;8.242;2023-06-22T03:49:20;18.00;99.90
8261;DHT22;64115;50.170;8.242;2023-06-22T03:51:47;18.10;99.90
8261;DHT22;64115;50.170;8.242;2023-06-22T03:54:13;18.20;99.90
8261;DHT22;64115;50.170;8.242;2023-06-22T03:56:40;18.30;99.90
8261;DHT22;64115;50.170;8.242;2023-06-22T03:59:08;18.30;99.90
8261;DHT22;64115;50.170;8.242;2023-06-22T04:01:35;18.40;99.90
8261;DHT22;64115;50.170;8.242;2023-06-22T04:04:02;18.40;99.90
8261;DHT22;64115;50.170;8.242;2023-06-22T04:06:29;18.40;99.90
8261;DHT22;64115;50.170;8.242;2023-06-22T04:08:56;18.40;99.90
8261;DHT22;64115;50.170;8.242;2023-06-22T04:11:23;18.50;99.90
8261;DHT22;64115;50.170;8.242;2023-06-22T04:13:49;18.40;99.90
8261;DHT22;64115;50.170;8.242;2023-06-22T04:16:18;18.40;99.90
8261;DHT22;64115;50.170;8.242;2023-06-22T04:18:44;18.30;99.90
8261;DHT22;64115;50.170;8.242;2023-06-22T04:21:13;18.30;99.90
8261;DHT22;64115;50.170;8.242;2023-06-22T04:23:40;18.30;99.90
8261;DHT22;64115;50.170;8.242;2023-06-22T04:26:08;18.30;99.90
8261;DHT22;64115;50.170;8.242;2023-06-22T04:28:35;18.30;99.90
8261;DHT22;64115;50.170;8.242;2023-06-22T04:31:02;18.30;99.90
8261;DHT22;64115;50.170;8.242;2023-06-22T04:33:30;18.40;99.90
8261;DHT22;64115;50.170;8.242;2023-06-22T04:35:57;18.50;99.90
8261;DHT22;64115;50.170;8.242;2023-06-22T04:38:26;18.60;99.90
8261;DHT22;64115;50.170;8.242;2023-06-22T04:40:53;18.60;99.90
8261;DHT22;64115;50.170;8.242;2023-06-22T04:43:20;18.70;99.90
8261;DHT22;64115;50.170;8.242;2023-06-22T04:45:47;18.70;99.90
8261;DHT22;64115;50.170;8.242;2023-06-22T04:48:18;18.80;99.90
8261;DHT22;64115;50.170;8.242;2023-06-22T04:50:46;18.90;99.90
8261;DHT22;64115;50.170;8.242;2023-06-22T04:53:13;18.90;99.90
8261;DHT22;64115;50.170;8.242;2023-06-22T04:55:40;19.00;99.90
8261;DHT22;64115;50.170;8.242;2023-06-22T04:58:11;19.00;99.90
8261;DHT22;64115;50.170;8.242;2023-06-22T05:00:38;19.00;99.90
8261;DHT22;64115;50.170;8.242;2023-06-22T05:03:05;18.90;99.90
8261;DHT22;64115;50.170;8.242;2023-06-22T05:05:36;18.90;99.90
8261;DHT22;64115;50.170;8.242;2023-06-22T05:08:04;18.80;99.90
8261;DHT22;64115;50.170;8.242;2023-06-22T05:10:32;18.70;99.90
8261;DHT22;64115;50.170;8.242;2023-06-22T05:12:59;18.60;99.90
8261;DHT22;64115;50.170;8.242;2023-06-22T05:15:25;18.60;99.90
8261;DHT22;64115;50.170;8.242;2023-06-22T05:17:56;18.60;99.90
8261;DHT22;64115;50.170;8.242;2023-06-22T05:20:25;18.60;99.90
8261;DHT22;64115;50.170;8.242;2023-06-22T05:22:52;18.60;99.90
8261;DHT22;64115;50.170;8.242;2023-06-22T05:25:20;18.70;99.90
8261;DHT22;64115;50.170;8.242;2023-06-22T05:27:47;18.70;99.90
8261;DHT22;64115;50.170;8.242;2023-06-22T05:30:15;18.70;99.90
8261;DHT22;64115;50.170;8.242;2023-06-22T05:32:43;18.80;99.90
8261;DHT22;64115;50.170;8.242;2023-06-22T05:35:09;18.80;99.90
8261;DHT22;64115;50.170;8.242;2023-06-22T05:37:36;18.80;99.90
8261;DHT22;64115;50.170;8.242;2023-06-22T05:40:04;18.70;99.90
8261;DHT22;64115;50.170;8.242;2023-06-22T05:42:34;18.70;99.90
8261;DHT22;64115;50.170;8.242;2023-06-22T05:45:00;18.80;99.90
8261;DHT22;64115;50.170;8.242;2023-06-22T05:47:27;18.90;99.90
8261;DHT22;64115;50.170;8.242;2023-06-22T05:49:54;19.10;99.90
8261;DHT22;64115;50.170;8.242;2023-06-22T05:52:21;19.30;99.90
8261;DHT22;64115;50.170;8.242;2023-06-22T05:54:47;19.40;99.90
8261;DHT22;64115;50.170;8.242;2023-06-22T05:57:14;19.60;99.90
8261;DHT22;64115;50.170;8.242;2023-06-22T05:59:43;19.60;99.90
8261;DHT22;64115;50.170;8.242;2023-06-22T06:02:10;19.80;99.90
8261;DHT22;64115;50.170;8.242;2023-06-22T06:04:37;19.90;99.90
8261;DHT22;64115;50.170;8.242;2023-06-22T06:07:04;20.10;99.90
8261;DHT22;64115;50.170;8.242;2023-06-22T06:09:30;20.10;99.90
8261;DHT22;64115;50.170;8.242;2023-06-22T06:11:57;20.30;99.90
8261;DHT22;64115;50.170;8.242;2023-06-22T06:14:24;20.40;99.90
8261;DHT22;64115;50.170;8.242;2023-06-22T06:16:54;20.60;99.90
8261;DHT22;64115;50.170;8.242;2023-06-22T06:19:21;20.70;99.90
8261;DHT22;64115;50.170;8.242;2023-06-22T06:21:48;20.90;99.90
8261;DHT22;64115;50.170;8.242;2023-06-22T06:24:15;21.00;99.90
8261;DHT22;64115;50.170;8.242;2023-06-22T06:26:42;21.10;99.90
8261;DHT22;64115;50.170;8.242;2023-06-22T06:29:11;21.20;99.90
8261;DHT22;64115;50.170;8.242;2023-06-22T06:31:39;21.40;99.90
8261;DHT22;64115;50.170;8.242;2023-06-22T06:34:07;21.50;99.90
8261;DHT22;64115;50.170;8.242;2023-06-22T06:36:34;21.50;99.90
8261;DHT22;64115;50.170;8.242;2023-06-22T06:39:01;21.60;99.90
8261;DHT22;64115;50.170;8.242;2023-06-22T06:41:29;21.70;99.90
8261;DHT22;64115;50.170;8.242;2023-06-22T06:43:55;21.80;99.90
8261;DHT22;64115;50.170;8.242;2023-06-22T06:46:22;21.80;99.90
8261;DHT22;64115;50.170;8.242;2023-06-22T06:48:49;21.90;99.90
8261;DHT22;64115;50.170;8.242;2023-06-22T06:51:17;22.00;99.90
8261;DHT22;64115;50.170;8.242;2023-06-22T06:53:44;22.00;99.90
8261;DHT22;64115;50.170;8.242;2023-06-22T06:56:10;22.00;99.90
8261;DHT22;64115;50.170;8.242;2023-06-22T06:58:40;21.80;99.90
8261;DHT22;64115;50.170;8.242;2023-06-22T07:01:07;21.80;99.90
8261;DHT22;64115;50.170;8.242;2023-06-22T07:03:34;21.90;99.90
8261;DHT22;64115;50.170;8.242;2023-06-22T07:06:01;21.90;99.90
8261;DHT22;64115;50.170;8.242;2023-06-22T07:08:29;22.20;99.90
8261;DHT22;64115;50.170;8.242;2023-06-22T07:10:56;22.30;99.90
8261;DHT22;64115;50.170;8.242;2023-06-22T07:13:22;22.40;99.90
8261;DHT22;64115;50.170;8.242;2023-06-22T07:15:49;22.60;99.90
8261;DHT22;64115;50.170;8.242;2023-06-22T07:18:16;22.70;99.90
8261;DHT22;64115;50.170;8.242;2023-06-22T07:20:43;22.80;99.90
8261;DHT22;64115;50.170;8.242;2023-06-22T07:23:10;22.80;99.90
8261;DHT22;64115;50.170;8.242;2023-06-22T07:25:40;22.80;99.90
8261;DHT22;64115;50.170;8.242;2023-06-22T07:28:07;22.90;99.90
8261;DHT22;64115;50.170;8.242;2023-06-22T07:30:34;23.00;99.90
8261;DHT22;64115;50.170;8.242;2023-06-22T07:33:01;23.10;99.90
8261;DHT22;64115;50.170;8.242;2023-06-22T07:35:29;23.30;99.90
8261;DHT22;64115;50.170;8.242;2023-06-22T07:37:56;23.50;99.90
8261;DHT22;64115;50.170;8.242;2023-06-22T07:40:23;23.50;99.90
8261;DHT22;64115;50.170;8.242;2023-06-22T07:42:51;23.50;99.90
8261;DHT22;64115;50.170;8.242;2023-06-22T07:45:19;23.50;99.90
8261;DHT22;64115;50.170;8.242;2023-06-22T07:47:46;23.50;99.90
8261;DHT22;64115;50.170;8.242;2023-06-22T07:50:14;23.50;99.90
8261;DHT22;64115;50.170;8.242;2023-06-22T07:52:42;23.50;99.90
8261;DHT22;64115;50.170;8.242;2023-06-22T07:55:08;23.50;99.90
8261;DHT22;64115;50.170;8.242;2023-06-22T07:57:35;23.30;99.90
8261;DHT22;64115;50.170;8.242;2023-06-22T08:00:08;23.50;99.90
8261;DHT22;64115;50.170;8.242;2023-06-22T08:02:38;23.80;99.90
8261;DHT22;64115;50.170;8.242;2023-06-22T08:05:05;24.00;99.90
8261;DHT22;64115;50.170;8.242;2023-06-22T08:07:35;24.10;99.90
8261;DHT22;64115;50.170;8.242;2023-06-22T08:10:03;24.10;99.90
8261;DHT22;64115;50.170;8.242;2023-06-22T08:12:30;24.20;99.90
8261;DHT22;64115;50.170;8.242;2023-06-22T08:14:57;24.10;99.90
8261;DHT22;64115;50.170;8.242;2023-06-22T08:17:25;24.30;99.90
8261;DHT22;64115;50.170;8.242;2023-06-22T08:19:52;24.50;99.90
8261;DHT22;64115;50.170;8.242;2023-06-22T08:22:19;24.70;99.90
8261;DHT22;64115;50.170;8.242;2023-06-22T08:24:46;24.80;99.90
8261;DHT22;64115;50.170;8.242;2023-06-22T08:27:13;25.00;99.90
8261;DHT22;64115;50.170;8.242;2023-06-22T08:29:41;24.90;99.90
8261;DHT22;64115;50.170;8.242;2023-06-22T08:32:08;25.00;99.90
8261;DHT22;64115;50.170;8.242;2023-06-22T08:34:37;25.30;99.90
8261;DHT22;64115;50.170;8.242;2023-06-22T08:37:07;25.30;99.90
8261;DHT22;64115;50.170;8.242;2023-06-22T08:39:34;25.10;99.90
8261;DHT22;64115;50.170;8.242;2023-06-22T08:42:01;25.00;99.90
8261;DHT22;64115;50.170;8.242;2023-06-22T08:44:28;25.20;99.90
8261;DHT22;64115;50.170;8.242;2023-06-22T08:46:54;25.20;99.90
8261;DHT22;64115;50.170;8.242;2023-06-22T08:49:21;25.40;99.90
8261;DHT22;64115;50.170;8.242;2023-06-22T08:51:51;25.40;99.90
8261;DHT22;64115;50.170;8.242;2023-06-22T08:54:19;25.30;99.90
8261;DHT22;64115;50.170;8.242;2023-06-22T08:56:46;25.20;99.90
8261;DHT22;64115;50.170;8.242;2023-06-22T08:59:14;25.10;99.90
8261;DHT22;64115;50.170;8.242;2023-06-22T09:01:44;25.00;99.90
8261;DHT22;64115;50.170;8.242;2023-06-22T09:04:14;25.10;99.90
8261;DHT22;64115;50.170;8.242;2023-06-22T09:06:41;25.30;99.90
8261;DHT22;64115;50.170;8.242;2023-06-22T09:09:12;25.50;99.90
8261;DHT22;64115;50.170;8.242;2023-06-22T09:11:39;25.30;99.90
8261;DHT22;64115;50.170;8.242;2023-06-22T09:14:06;25.10;99.90
8261;DHT22;64115;50.170;8.242;2023-06-22T09:16:34;25.00;99.90
8261;DHT22;64115;50.170;8.242;2023-06-22T09:19:01;24.70;99.90
8261;DHT22;64115;50.170;8.242;2023-06-22T09:21:28;24.60;99.90
8261;DHT22;64115;50.170;8.242;2023-06-22T09:23:55;24.70;99.90
8261;DHT22;64115;50.170;8.242;2023-06-22T09:26:23;25.00;99.90
8261;DHT22;64115;50.170;8.242;2023-06-22T09:28:50;25.40;99.90
8261;DHT22;64115;50.170;8.242;2023-06-22T09:31:17;25.30;99.90
8261;DHT22;64115;50.170;8.242;2023-06-22T09:33:51;25.80;99.90
8261;DHT22;64115;50.170;8.242;2023-06-22T09:36:17;26.20;99.90
8261;DHT22;64115;50.170;8.242;2023-06-22T09:38:44;26.20;99.90
8261;DHT22;64115;50.170;8.242;2023-06-22T09:41:11;26.00;99.90
8261;DHT22;64115;50.170;8.242;2023-06-22T09:43:39;25.50;99.90
8261;DHT22;64115;50.170;8.242;2023-06-22T09:46:06;25.10;99.90
8261;DHT22;64115;50.170;8.242;2023-06-22T09:48:34;25.30;99.90
8261;DHT22;64115;50.170;8.242;2023-06-22T09:51:01;25.50;99.90
8261;DHT22;64115;50.170;8.242;2023-06-22T09:53:30;25.70;99.90
8261;DHT22;64115;50.170;8.242;2023-06-22T09:55:57;25.50;99.90
8261;DHT22;64115;50.170;8.242;2023-06-22T09:58:25;25.20;99.90
8261;DHT22;64115;50.170;8.242;2023-06-22T10:00:55;25.10;99.90
8261;DHT22;64115;50.170;8.242;2023-06-22T10:03:22;25.40;99.90
8261;DHT22;64115;50.170;8.242;2023-06-22T10:05:48;25.60;99.90
8261;DHT22;64115;50.170;8.242;2023-06-22T10:08:15;25.80;99.90
8261;DHT22;64115;50.170;8.242;2023-06-22T10:10:44;26.20;99.90
8261;DHT22;64115;50.170;8.242;2023-06-22T10:13:11;26.20;99.90
8261;DHT22;64115;50.170;8.242;2023-06-22T10:15:39;26.20;99.90
8261;DHT22;64115;50.170;8.242;2023-06-22T10:18:08;25.90;99.90
8261;DHT22;64115;50.170;8.242;2023-06-22T10:20:34;25.60;99.90
8261;DHT22;64115;50.170;8.242;2023-06-22T10:23:01;25.80;99.90
8261;DHT22;64115;50.170;8.242;2023-06-22T10:25:28;26.00;99.90
8261;DHT22;64115;50.170;8.242;2023-06-22T10:27:55;25.60;99.90
8261;DHT22;64115;50.170;8.242;2023-06-22T10:30:22;25.40;99.90
8261;DHT22;64115;50.170;8.242;2023-06-22T10:32:49;25.70;99.90
8261;DHT22;64115;50.170;8.242;2023-06-22T10:35:17;26.00;99.90
8261;DHT22;64115;50.170;8.242;2023-06-22T10:37:44;26.00;99.90
8261;DHT22;64115;50.170;8.242;2023-06-22T10:40:12;25.90;99.90
8261;DHT22;64115;50.170;8.242;2023-06-22T10:42:40;25.80;99.90
8261;DHT22;64115;50.170;8.242;2023-06-22T10:45:08;26.00;99.90
8261;DHT22;64115;50.170;8.242;2023-06-22T10:47:35;26.10;99.90
8261;DHT22;64115;50.170;8.242;2023-06-22T10:50:02;26.00;99.90
8261;DHT22;64115;50.170;8.242;2023-06-22T10:52:31;26.00;99.90
8261;DHT22;64115;50.170;8.242;2023-06-22T10:54:58;26.20;99.90
8261;DHT22;64115;50.170;8.242;2023-06-22T10:57:24;26.10;99.90
8261;DHT22;64115;50.170;8.242;2023-06-22T10:59:51;26.00;99.90
8261;DHT22;64115;50.170;8.242;2023-06-22T11:02:18;25.90;99.90
8261;DHT22;64115;50.170;8.242;2023-06-22T11:04:45;26.20;99.90
8261;DHT22;64115;50.170;8.242;2023-06-22T11:07:13;26.40;99.90
8261;DHT22;64115;50.170;8.242;2023-06-22T11:09:43;26.20;99.90
8261;DHT22;64115;50.170;8.242;2023-06-22T11:12:10;26.00;99.90
8261;DHT22;64115;50.170;8.242;2023-06-22T11:14:36;26.00;99.90
8261;DHT22;64115;50.170;8.242;2023-06-22T11:17:03;26.40;99.90
8261;DHT22;64115;50.170;8.242;2023-06-22T11:19:30;26.80;99.90
8261;DHT22;64115;50.170;8.242;2023-06-22T11:21:57;26.80;99.90
8261;DHT22;64115;50.170;8.242;2023-06-22T11:24:24;26.60;99.90
8261;DHT22;64115;50.170;8.242;2023-06-22T11:26:52;26.70;99.90
8261;DHT22;64115;50.170;8.242;2023-06-22T11:29:19;26.80;99.90
8261;DHT22;64115;50.170;8.242;2023-06-22T11:31:45;26.90;99.90
8261;DHT22;64115;50.170;8.242;2023-06-22T11:34:12;27.00;99.90
8261;DHT22;64115;50.170;8.242;2023-06-22T11:36:39;27.00;99.90
8261;DHT22;64115;50.170;8.242;2023-06-22T11:39:07;27.40;99.90
8261;DHT22;64115;50.170;8.242;2023-06-22T11:41:35;27.70;99.90
8261;DHT22;64115;50.170;8.242;2023-06-22T11:44:03;27.50;99.90
8261;DHT22;64115;50.170;8.242;2023-06-22T11:46:31;27.50;99.90
8261;DHT22;64115;50.170;8.242;2023-06-22T11:48:58;27.60;99.90
8261;DHT22;64115;50.170;8.242;2023-06-22T11:51:25;27.80;99.90
8261;DHT22;64115;50.170;8.242;2023-06-22T11:53:53;28.00;99.90
8261;DHT22;64115;50.170;8.242;2023-06-22T11:56:19;28.20;99.90
8261;DHT22;64115;50.170;8.242;2023-06-22T11:58:46;28.30;99.90
8261;DHT22;64115;50.170;8.242;2023-06-22T12:01:19;28.50;99.90
8261;DHT22;64115;50.170;8.242;2023-06-22T12:03:46;28.70;99.90
8261;DHT22;64115;50.170;8.242;2023-06-22T12:06:13;28.80;99.90
8261;DHT22;64115;50.170;8.242;2023-06-22T12:08:40;28.70;99.90
8261;DHT22;64115;50.170;8.242;2023-06-22T12:11:07;29.00;99.90
8261;DHT22;64115;50.170;8.242;2023-06-22T12:13:34;29.20;99.90
8261;DHT22;64115;50.170;8.242;2023-06-22T12:16:00;28.80;99.90
8261;DHT22;64115;50.170;8.242;2023-06-22T12:18:29;29.00;99.90
8261;DHT22;64115;50.170;8.242;2023-06-22T12:20:55;28.90;99.90
8261;DHT22;64115;50.170;8.242;2023-06-22T12:23:22;28.50;99.90
8261;DHT22;64115;50.170;8.242;2023-06-22T12:25:49;28.70;99.90
8261;DHT22;64115;50.170;8.242;2023-06-22T12:28:16;28.60;99.90
8261;DHT22;64115;50.170;8.242;2023-06-22T12:30:42;28.80;99.90
8261;DHT22;64115;50.170;8.242;2023-06-22T12:33:09;29.00;99.90
8261;DHT22;64115;50.170;8.242;2023-06-22T12:35:37;28.90;99.90
8261;DHT22;64115;50.170;8.242;2023-06-22T12:38:04;28.80;99.90
8261;DHT22;64115;50.170;8.242;2023-06-22T12:40:32;28.70;99.90
8261;DHT22;64115;50.170;8.242;2023-06-22T12:42:59;28.70;99.90
8261;DHT22;64115;50.170;8.242;2023-06-22T12:45:27;28.70;99.90
8261;DHT22;64115;50.170;8.242;2023-06-22T12:47:57;28.60;99.90
8261;DHT22;64115;50.170;8.242;2023-06-22T12:50:25;28.70;99.90
8261;DHT22;64115;50.170;8.242;2023-06-22T12:52:53;28.70;99.90
8261;DHT22;64115;50.170;8.242;2023-06-22T12:55:20;28.60;99.90
8261;DHT22;64115;50.170;8.242;2023-06-22T12:57:46;28.90;99.90
8261;DHT22;64115;50.170;8.242;2023-06-22T13:00:14;29.20;99.90
8261;DHT22;64115;50.170;8.242;2023-06-22T13:02:41;29.20;99.90
8261;DHT22;64115;50.170;8.242;2023-06-22T13:05:09;29.10;99.90
8261;DHT22;64115;50.170;8.242;2023-06-22T13:07:35;29.20;99.90
8261;DHT22;64115;50.170;8.242;2023-06-22T13:10:05;29.00;99.90
8261;DHT22;64115;50.170;8.242;2023-06-22T13:12:34;28.80;99.90
8261;DHT22;64115;50.170;8.242;2023-06-22T13:15:05;28.60;99.90
8261;DHT22;64115;50.170;8.242;2023-06-22T13:17:33;28.60;99.90
8261;DHT22;64115;50.170;8.242;2023-06-22T13:20:00;28.80;99.90
8261;DHT22;64115;50.170;8.242;2023-06-22T13:22:30;28.70;99.90
8261;DHT22;64115;50.170;8.242;2023-06-22T13:24:58;28.60;99.90
8261;DHT22;64115;50.170;8.242;2023-06-22T13:27:26;28.40;99.90
8261;DHT22;64115;50.170;8.242;2023-06-22T13:29:55;28.30;99.90
8261;DHT22;64115;50.170;8.242;2023-06-22T13:32:21;28.30;99.90
8261;DHT22;64115;50.170;8.242;2023-06-22T13:34:48;28.30;99.90
8261;DHT22;64115;50.170;8.242;2023-06-22T13:37:15;28.30;99.90
8261;DHT22;64115;50.170;8.242;2023-06-22T13:39:42;28.40;99.90
8261;DHT22;64115;50.170;8.242;2023-06-22T13:42:09;28.70;99.90
8261;DHT22;64115;50.170;8.242;2023-06-22T13:44:37;28.80;99.90
8261;DHT22;64115;50.170;8.242;2023-06-22T13:47:04;29.00;99.90
8261;DHT22;64115;50.170;8.242;2023-06-22T13:49:31;29.10;99.90
8261;DHT22;64115;50.170;8.242;2023-06-22T13:51:58;29.20;99.90
8261;DHT22;64115;50.170;8.242;2023-06-22T13:54:25;29.10;99.90
8261;DHT22;64115;50.170;8.242;2023-06-22T13:56:52;28.90;99.90
8261;DHT22;64115;50.170;8.242;2023-06-22T13:59:18;28.60;99.90
8261;DHT22;64115;50.170;8.242;2023-06-22T14:01:47;28.30;99.90
8261;DHT22;64115;50.170;8.242;2023-06-22T14:04:14;27.90;99.90
8261;DHT22;64115;50.170;8.242;2023-06-22T14:06:41;27.40;99.90
8261;DHT22;64115;50.170;8.242;2023-06-22T14:09:08;27.30;99.90
8261;DHT22;64115;50.170;8.242;2023-06-22T14:11:34;27.10;99.90
8261;DHT22;64115;50.170;8.242;2023-06-22T14:14:01;26.90;99.90
8261;DHT22;64115;50.170;8.242;2023-06-22T14:16:28;26.90;99.90
8261;DHT22;64115;50.170;8.242;2023-06-22T14:18:56;26.90;99.90
8261;DHT22;64115;50.170;8.242;2023-06-22T14:21:23;26.90;99.90
8261;DHT22;64115;50.170;8.242;2023-06-22T14:23:50;26.80;99.90
8261;DHT22;64115;50.170;8.242;2023-06-22T14:26:17;26.80;99.90
8261;DHT22;64115;50.170;8.242;2023-06-22T14:28:44;26.70;99.90
8261;DHT22;64115;50.170;8.242;2023-06-22T14:31:13;26.60;99.90
8261;DHT22;64115;50.170;8.242;2023-06-22T14:33:40;26.60;99.90
8261;DHT22;64115;50.170;8.242;2023-06-22T14:36:08;26.70;99.90
8261;DHT22;64115;50.170;8.242;2023-06-22T14:38:35;26.70;99.90
8261;DHT22;64115;50.170;8.242;2023-06-22T14:41:02;26.80;99.90
8261;DHT22;64115;50.170;8.242;2023-06-22T14:43:29;26.80;99.90
8261;DHT22;64115;50.170;8.242;2023-06-22T14:45:55;26.90;99.90
8261;DHT22;64115;50.170;8.242;2023-06-22T14:48:22;26.80;99.90
8261;DHT22;64115;50.170;8.242;2023-06-22T14:50:49;26.80;99.90
8261;DHT22;64115;50.170;8.242;2023-06-22T14:53:17;26.80;99.90
8261;DHT22;64115;50.170;8.242;2023-06-22T14:55:44;26.80;99.90
8261;DHT22;64115;50.170;8.242;2023-06-22T14:58:11;26.80;99.90
8261;DHT22;64115;50.170;8.242;2023-06-22T15:00:37;26.80;99.90
8261;DHT22;64115;50.170;8.242;2023-06-22T15:03:05;26.70;99.90
8261;DHT22;64115;50.170;8.242;2023-06-22T15:05:33;26.70;99.90
8261;DHT22;64115;50.170;8.242;2023-06-22T15:07:59;26.70;99.90
8261;DHT22;64115;50.170;8.242;2023-06-22T15:10:28;26.70;99.90
8261;DHT22;64115;50.170;8.242;2023-06-22T15:12:54;26.70;99.90
8261;DHT22;64115;50.170;8.242;2023-06-22T15:15:21;26.70;99.90
8261;DHT22;64115;50.170;8.242;2023-06-22T15:17:48;26.70;99.90
8261;DHT22;64115;50.170;8.242;2023-06-22T15:20:15;26.70;99.90
8261;DHT22;64115;50.170;8.242;2023-06-22T15:22:42;26.60;99.90
8261;DHT22;64115;50.170;8.242;2023-06-22T15:25:08;26.60;99.90
8261;DHT22;64115;50.170;8.242;2023-06-22T15:27:37;26.50;99.90
8261;DHT22;64115;50.170;8.242;2023-06-22T15:30:05;26.40;99.90
8261;DHT22;64115;50.170;8.242;2023-06-22T15:32:32;25.40;99.90
8261;DHT22;64115;50.170;8.242;2023-06-22T15:34:59;24.50;99.90
8261;DHT22;64115;50.170;8.242;2023-06-22T15:37:26;23.90;99.90
8261;DHT22;64115;50.170;8.242;2023-06-22T15:39:52;23.60;99.90
8261;DHT22;64115;50.170;8.242;2023-06-22T15:42:21;23.40;99.90
8261;DHT22;64115;50.170;8.242;2023-06-22T15:44:49;23.30;99.90
8261;DHT22;64115;50.170;8.242;2023-06-22T15:47:16;23.30;99.90